TAF LEEC
METAR LEEC
LEEC 071400Z 22005KT 150V270 CAVOK 17/09 Q1022=
LEEC 071330Z VRB03KT CAVOK 16/09 Q1023=
LEEC 071300Z 25003KT 190V310 CAVOK 16/09 Q1023=
LEEC 071230Z VRB01KT CAVOK 15/08 Q1024=
LEEC 071200Z VRB02KT CAVOK 14/08 Q1024=
WC LEEC
WS LEEC
WV LEEC